Kenora Airport
CYQK : now visible

Airfield :











YOU CAN JOIN US ON...

 
LOGIN :

Register | Disclaimer

   EN    FR    IT 

 









Legend :    VFR   Marginal VFR   IFR   Intensive IFR   Very Intensive IFR
Visi :
Ceiling :
>= 8 km
>= 3000ft
5 to 8 km
1000 to 3000 ft
1500m to 5 km
500 to 1000 ft
800 to 1500m
200 to 500 ft
< 800m
< 200 ft
Symbols :   Thunderstorms  Fog  Heavy snow  Heavy precipitations  Wind > 20 kt







- Airport Elevation : 1332 ft
- IATA code : YQK


CYQK - Kenora

CURRENT METAR :
  • 210500Z 24008G18KT 12SM -TSRA SCT018CB BKN180 OVC230 19/18 A2978 RMK CB3AC2CI3 OCNL LTGICCC W MOVG N SLP088 DENSITY ALT 2300FT

EXPIRED METARs :
  • 210430Z 16013G19KT 12SM TS SCT023CB SCT120 BKN180 OVC230 19/18 A2978 RMK CB3AC1AC2CI2 FRQ LTGICCC SW-W MOVG N SLP088 DENSITY ALT 2400FT
  • 210400Z 16012G23KT 20SM FEW020TCU SCT120 SCT180 OVC230 19/18 A2978 RMK TCU2AC1AC1CI4 DIST LTGICCC SW-W MOVG N SLP089 DENSITY ALT 2300FT
  • 210300Z 16013G21KT 20SM FEW020TCU FEW120 SCT180 OVC240 19/17 A2979 RMK TCU1AC1AC2CI4 DIST LTGIC SW-NW SLP091 DENSITY ALT 2300FT

TAF AMD TAF CYQK
Valid from the 21 at 04:00 until the 21 at 14:00 UTC


210438Z 2104/2114 16012G22KT P6SM -SHRA BKN025 BKN180
TEMPO 2104/2106 VRB30G45KT 2SM TSRA BR BKN010 OVC020CB
FM210600 16012G22KT P6SM -SHRA OVC030
TEMPO 2106/2108 5SM -SHRA BR OVC020
PROB40 2106/2108 VRB30G45KT 2SM TSRA BR BKN010 OVC040CB
FM210800 20012G22KT 4SM -SHRA BR OVC010
PROB40 2108/2114 VRB30G45KT 2SM TSRA BR BKN007 OVC040CB RMK NXT FCST BY 210800Z
No reported NOTAMs for that airfield.



MET'MAP, your aeronautical weather chart ! - Copyright ORBIFLY December 2007 - Disclaimer

ORBIFLY MET'MAP TEAM :

Programming & Development : Alexandra Zaïnal
Concept & Development : Baudouin d'Aumeries
Co-Development & Prog : Marc-Olivier Méhu
Technical & hardware support : Manuel Goepfert

Contact : metmap@orbifly.com




SOURCES & CREDITS :

   NOAA       Earth
Advisory